Flight Track Log - Related Links

Times and Time Zones

All times are in EDT time to prevent confusion due to time zone crossing. See the SWA561 flight status page for this flight to view local times or setup timezone preferences in your user account.

Time Position Orientation Groundspeed Altitude Reporting Facility
EDT Latitude Longitude Course Direction KTS MPH feet Rate Location/Type
Mon 08:10:52 PM 37.7333 -122.2833 140° Southeast 177 204 2,800  Level Northern Cal TRACON
Mon 08:11:52 PM 37.7500 -122.3500 288° West 225 259 5,800 2,775 Climbing Northern Cal TRACON
Mon 08:12:12 PM 37.7369 -122.3667 225° Southwest 221 254 6,500 3,200 Climbing Oakland Center
Mon 08:12:52 PM 37.6833 -122.4000 206° Southwest 294 338 9,000 3,840 Climbing Northern Cal TRACON
Mon 08:13:52 PM 37.6000 -122.4167 189° South 306 352 12,900 3,108 Climbing Northern Cal TRACON
Mon 08:14:15 PM 37.5828 -122.4300 212° Southwest 299 344 13,300 2,857 Climbing Oakland Center
Mon 08:15:16 PM 37.4978 -122.3764 153° Southeast 362 417 16,900 3,049 Climbing Oakland Center
Mon 08:16:00 PM 37.2631 -121.7315 140° Southeast  Level Estimated
Mon 08:16:17 PM 37.4253 -122.2781 133° Southeast 382 440 19,500  Level Oakland Center
Mon 08:17:18 PM 37.3342 -122.1564 133° Southeast 400 460 23,100 3,098 Climbing Oakland Center
Mon 08:18:19 PM 37.2542 -122.0503 133° Southeast 419 482 25,800 2,537 Climbing Oakland Center
Mon 08:19:21 PM 37.1711 -121.9386 133° Southeast 435 501 28,300 2,585 Climbing Oakland Center
Mon 08:20:22 PM 37.0867 -121.8275 134° Southeast 441 507 31,100 2,213 Climbing Oakland Center
Mon 08:21:23 PM 37.0022 -121.7192 134° Southeast 437 503 32,800 1,279 Climbing Oakland Center
Mon 08:22:24 PM 36.9164 -121.6069 134° Southeast 444 511 33,700 1,122 Climbing Oakland Center
Mon 08:23:26 PM 36.8300 -121.4942 134° Southeast 450 518 35,100 1,756 Climbing Oakland Center
Mon 08:24:27 PM 36.7358 -121.3700 133° Southeast 449 517 37,300 1,721 Climbing Oakland Center
Mon 08:25:28 PM 36.6494 -121.2567 134° Southeast 449 517 38,600 836 Climbing Oakland Center
Mon 08:26:29 PM 36.5636 -121.1428 133° Southeast 452 520 39,000 197 Climbing Oakland Center
Mon 08:27:30 PM 36.4750 -121.0306 134° Southeast 455 524 39,000  Level Oakland Center
Mon 08:28:32 PM 36.3867 -120.9153 134° Southeast 459 528 39,000  Level Oakland Center
Mon 08:29:33 PM 36.2983 -120.8008 134° Southeast 459 528 39,000  Level Oakland Center
Mon 08:30:34 PM 36.2078 -120.6864 134° Southeast 462 532 39,000  Level Oakland Center
Mon 08:31:35 PM 36.1006 -120.5503 134° Southeast 460 529 39,000  Level Oakland Center
Mon 08:32:37 PM 36.0097 -120.4333 134° Southeast 468 539 39,000  Level Oakland Center
Mon 08:33:38 PM 35.9200 -120.3219 135° Southeast 458 527 39,000  Level Oakland Center
Mon 08:34:39 PM 35.8297 -120.2064 134° Southeast 462 532 39,000  Level Oakland Center
Mon 08:35:40 PM 35.7386 -120.0922 134° Southeast 464 534 39,000  Level Oakland Center
Mon 08:36:41 PM 35.6467 -119.9789 135° Southeast 464 534 39,000  Level Oakland Center
Mon 08:37:43 PM 35.5408 -119.8872 145° Southeast 460 529 39,000  Level Oakland Center
Mon 08:38:44 PM 35.4347 -119.7961 145° Southeast 461 531 39,000  Level Oakland Center
Mon 08:39:45 PM 35.3303 -119.7056 145° Southeast 459 528 39,000  Level Oakland Center
Mon 08:40:46 PM 35.2264 -119.6161 145° Southeast 456 525 39,000 -1,672 Level Oakland Center
Mon 08:41:47 PM 35.1208 -119.5267 145° Southeast 457 526 35,600 -3,220 Descending Oakland Center
Mon 08:42:49 PM 35.0119 -119.4339 145° Southeast 471 542 32,400 -3,366 Descending Oakland Center
Mon 08:43:50 PM 34.9031 -119.3428 146° Southeast 472 543 28,700 -2,803 Descending Oakland Center
Mon 08:44:51 PM 34.7961 -119.2528 145° Southeast 471 542 26,700 -2,289 Descending Oakland Center
Mon 08:45:06 PM 34.7583 -119.2164 142° Southeast 465 535 25,800 -2,526 Descending Los Angeles Center
Mon 08:46:07 PM 34.6600 -119.1358 146° Southeast 443 510 23,500 -2,195 Descending Los Angeles Center
Mon 08:47:09 PM 34.5647 -119.0544 145° Southeast 419 482 21,300 -2,129 Descending Los Angeles Center
Mon 08:48:11 PM 34.4731 -118.9778 145° Southeast 401 461 19,100 -2,081 Descending Los Angeles Center
Mon 08:49:13 PM 34.3847 -118.9053 146° Southeast 385 443 17,000 -2,146 Descending Los Angeles Center
Mon 08:50:14 PM 34.2911 -118.8567 157° South 367 422 14,700 -2,390 Descending Los Angeles Center
Mon 08:51:16 PM 34.1767 -118.8147 163° South 357 411 12,100 -1,984 Descending Los Angeles Center
Mon 08:52:18 PM 34.0850 -118.7808 163° South 346 398 10,600 -1,016 Descending Los Angeles Center
Mon 08:53:20 PM 34.0336 -118.7028 128° Southeast 303 349 10,000 -532 Descending Los Angeles Center
Mon 08:54:22 PM 34.0244 -118.6072 97° East 287 330 9,500 -829 Descending Los Angeles Center
Mon 08:55:23 PM 34.0153 -118.5122 97° East 284 327 8,300 -976 Descending Los Angeles Center
Mon 08:56:25 PM 34.0144 -118.4347 91° East 254 292 7,500 -919 Descending Los Angeles Center
Mon 08:57:27 PM 34.0244 -118.3578 81° East 237 273 6,400 -1,171 Descending Los Angeles Center
Mon 08:58:28 PM 34.0361 -118.2842 79° East 227 261 5,100 -1,220 Descending Los Angeles Center
Mon 08:59:30 PM 34.0219 -118.2144 104° East 225 259 3,900 -1,113 Descending Los Angeles Center
Mon 09:00:32 PM 33.9836 -118.2617 226° Southwest 205 236 2,800 -1,024 Descending Los Angeles Center
Mon 09:01:33 PM 33.9631 -118.3175 246° West 191 220 1,800 -1,024 Descending Los Angeles Center
Mon 09:02:35 PM 33.9575 -118.3647 262° West 161 185 700 -823 Descending Los Angeles Center
Mon 09:03:37 PM 33.9522 -118.4050 261° West 139 160 100 -581 Descending Los Angeles Center
Mon 09:05:00 PM 33.9425 -118.4081 228° Southwest  Level Estimated

Login

Don't have an account? Register now (free) for customized features, flight alerts, and more!